Neptuno — XCNEP — position and weather

sailwx.info

Track history (hours):
 
Tides and Currents Weather Stations Pressure Air Temp Water Temp Dewpoint Dewpoint Depression Visibility Wind Speed Wind Dir Waves Ship Positions

Neptuno

Last reported at 2018-Jun-21 14:17 UTC. Time now 2018-Jun-21 16:24 UTC.
Position N 19°12' W 096°08'.

Length 11 m.

Type: Pilot. MMSI: 345390000.

Date/timePositionNaut miles runAvg speedWind from/ knotsBaromVisibWave heightAir tempDewpointWater temp
2018-Jun-21 14:17N 19°12' W 096°08'3 7.8
2018-Jun-21 13:57N 19°12' W 096°05'3 5.2
2018-Jun-21 13:27N 19°12' W 096°08'0 0.0
2018-Jun-21 11:31N 19°12' W 096°08'0 0.0
2018-Jun-21 11:01N 19°12' W 096°08'0 0.0
2018-Jun-21 10:49N 19°12' W 096°08'0 0.0
2018-Jun-21 10:19N 19°12' W 096°08'0 0.0
2018-Jun-21 09:58N 19°12' W 096°08'0 0.0
2018-Jun-21 08:01N 19°12' W 096°08'0 0.0
2018-Jun-21 07:43N 19°12' W 096°08'0 0.0
2018-Jun-21 07:25N 19°12' W 096°08'0 0.0
2018-Jun-21 06:58N 19°12' W 096°08'0 0.0
2018-Jun-21 05:46N 19°12' W 096°08'0 0.0
2018-Jun-21 05:28N 19°12' W 096°08'0 0.0
2018-Jun-21 04:37N 19°12' W 096°08'0 0.0
2018-Jun-21 04:13N 19°12' W 096°08'0 0.0
2018-Jun-21 02:58N 19°12' W 096°08'0 0.0
2018-Jun-21 02:28N 19°12' W 096°08'0 0.0
2018-Jun-21 01:49N 19°12' W 096°08'0 0.0
2018-Jun-21 01:13N 19°12' W 096°08'0 0.0
2018-Jun-21 00:13N 19°12' W 096°08'0 0.0
2018-Jun-20 23:58N 19°12' W 096°08'0 0.1
2018-Jun-20 19:46N 19°12' W 096°08'2 1.7
2018-Jun-20 18:51N 19°12' W 096°06'2 4.2
2018-Jun-20 18:27N 19°12' W 096°08'0 0.0
2018-Jun-20 16:30N 19°12' W 096°08'0 0.2
2018-Jun-20 15:47N 19°12' W 096°08'2 7.1
2018-Jun-20 15:29N 19°12' W 096°05'3 5.6
2018-Jun-20 14:59N 19°13' W 096°08'1 0.9
2018-Jun-20 13:57N 19°12' W 096°08'0 0.0
2018-Jun-20 13:24N 19°12' W 096°08'0 0.0
2018-Jun-20 12:51N 19°12' W 096°08'0 0.0
2018-Jun-20 12:27N 19°12' W 096°08'0 0.0
2018-Jun-20 11:18N 19°12' W 096°08'0 0.0
2018-Jun-20 11:00N 19°12' W 096°08'0 0.0
2018-Jun-20 10:27N 19°12' W 096°08'0 0.4
2018-Jun-20 09:34N 19°12' W 096°08'0 3.0
2018-Jun-20 09:27N 19°12' W 096°07'4 7.6
2018-Jun-20 08:59N 19°11' W 096°04'4 4.6
2018-Jun-20 08:10N 19°12' W 096°08'0 0.0
2018-Jun-20 07:55N 19°12' W 096°08'0 0.0
2018-Jun-20 07:07N 19°12' W 096°08'0 0.0
2018-Jun-20 06:43N 19°12' W 096°08'0 0.0
2018-Jun-20 05:49N 19°12' W 096°08'0 0.0
2018-Jun-20 05:25N 19°12' W 096°08'1 1.3
2018-Jun-20 04:43N 19°12' W 096°07'1 5.2
2018-Jun-20 04:26N 19°12' W 096°05'1 1.4
2018-Jun-20 04:00N 19°12' W 096°06'2 3.0
2018-Jun-20 03:26N 19°12' W 096°08'0 0.1
2018-Jun-20 02:48N 19°12' W 096°08'0 0.0
2018-Jun-19 20:17N 19°12' W 096°08'0 0.0
2018-Jun-19 19:59N 19°12' W 096°08'0 0.1
2018-Jun-19 18:09N 19°12' W 096°08'0 0.2
2018-Jun-19 16:49N 19°12' W 096°08'0 0.1
2018-Jun-19 16:27N 19°12' W 096°08'0 0.0
2018-Jun-19 15:57N 19°12' W 096°08'0 0.0
2018-Jun-19 15:27N 19°12' W 096°08'0 0.0
2018-Jun-19 14:57N 19°12' W 096°08'0 0.0
2018-Jun-19 14:21N 19°12' W 096°08'0 0.0
2018-Jun-19 13:54N 19°12' W 096°08'0 0.0
2018-Jun-19 13:30N 19°12' W 096°08'0 0.0
2018-Jun-19 13:00N 19°12' W 096°08'0 0.0
2018-Jun-19 12:30N 19°12' W 096°08'0 0.0
2018-Jun-19 12:00N 19°12' W 096°08'0 0.0
2018-Jun-19 11:30N 19°12' W 096°08'0 0.0
2018-Jun-19 11:00N 19°12' W 096°08'0 0.0
2018-Jun-19 10:30N 19°12' W 096°08'0 0.0
2018-Jun-19 09:57N 19°12' W 096°08'0 0.0
2018-Jun-19 09:30N 19°12' W 096°08'0 0.0
2018-Jun-19 09:00N 19°12' W 096°08'0 0.0
2018-Jun-19 08:27N 19°12' W 096°08'0 0.0
2018-Jun-19 07:57N 19°12' W 096°08'0 0.0
2018-Jun-19 07:30N 19°12' W 096°08'0 0.0
2018-Jun-19 07:00N 19°12' W 096°08'0 0.0
2018-Jun-19 06:30N 19°12' W 096°08'0 0.0
2018-Jun-19 06:00N 19°12' W 096°08'0 0.0
2018-Jun-19 05:30N 19°12' W 096°08'2 3.6
2018-Jun-19 04:50N 19°12' W 096°05'0 0.6
2018-Jun-19 04:29N 19°12' W 096°05'2 4.9
2018-Jun-19 03:59N 19°13' W 096°08'1 1.0
2018-Jun-19 03:22N 19°12' W 096°08'0 0.0
2018-Jun-19 02:58N 19°12' W 096°08'0 0.0
2018-Jun-19 02:28N 19°12' W 096°08'0 0.0
2018-Jun-19 01:58N 19°12' W 096°08'0 0.0
2018-Jun-19 01:25N 19°12' W 096°08'0 0.0
2018-Jun-19 00:58N 19°12' W 096°08'0 0.0
2018-Jun-19 00:28N 19°12' W 096°08'0 0.0
2018-Jun-18 23:58N 19°12' W 096°08'0 0.0
2018-Jun-18 23:25N 19°12' W 096°08'0 0.0
2018-Jun-18 22:55N 19°12' W 096°08'0 0.0
2018-Jun-18 22:25N 19°12' W 096°08'0 0.0
2018-Jun-18 21:43N 19°12' W 096°08'0 0.0
2018-Jun-18 20:43N 19°12' W 096°08'0 0.0
2018-Jun-18 20:25N 19°12' W 096°08'0 0.1
2018-Jun-18 18:49N 19°12' W 096°08'0 0.4
2018-Jun-18 18:28N 19°12' W 096°08'0 0.0
2018-Jun-18 16:46N 19°12' W 096°08'0 0.0
2018-Jun-18 16:22N 19°12' W 096°08'0 0.0
2018-Jun-18 15:58N 19°12' W 096°08'0 0.0
2018-Jun-18 15:16N 19°12' W 096°08'0 0.0
2018-Jun-18 14:58N 19°12' W 096°08'0 0.0
2018-Jun-18 14:28N 19°12' W 096°08'0 0.0
2018-Jun-18 13:58N 19°12' W 096°08'0 0.0
2018-Jun-18 13:25N 19°12' W 096°08'0 0.0
2018-Jun-18 12:58N 19°12' W 096°08'0 0.0
2018-Jun-18 12:28N 19°12' W 096°08'0 0.0
2018-Jun-18 11:58N 19°12' W 096°08'0 0.0
2018-Jun-18 11:22N 19°12' W 096°08'0 0.0
2018-Jun-18 10:58N 19°12' W 096°08'0 0.0
2018-Jun-18 10:28N 19°12' W 096°08'0 0.0
2018-Jun-18 09:58N 19°12' W 096°08'1 1.4
2018-Jun-18 09:27N 19°13' W 096°08'2 5.3
2018-Jun-18 09:00N 19°12' W 096°06'1 1.8
2018-Jun-18 08:30N 19°12' W 096°05'3 5.7
2018-Jun-18 08:00N 19°12' W 096°08'0 0.0
2018-Jun-17 12:29N 19°12' W 096°08'0 0.6
2018-Jun-17 12:00N 19°12' W 096°08'0 0.6
2018-Jun-17 11:28N 19°12' W 096°08'0 0.0
2018-Jun-17 10:52N 19°12' W 096°08'0 0.0
2018-Jun-17 10:22N 19°12' W 096°08'0 0.0
2018-Jun-17 09:58N 19°12' W 096°08'0 0.0
2018-Jun-17 09:25N 19°12' W 096°08'0 0.0
2018-Jun-17 08:58N 19°12' W 096°08'0 0.0
2018-Jun-17 08:28N 19°12' W 096°08'0 0.0
2018-Jun-17 07:55N 19°12' W 096°08'0 0.0
2018-Jun-17 07:28N 19°12' W 096°08'0 0.0
2018-Jun-17 06:49N 19°12' W 096°08'0 0.0
2018-Jun-17 06:25N 19°12' W 096°08'0 0.0
2018-Jun-17 05:52N 19°12' W 096°08'0 0.0
2018-Jun-17 05:25N 19°12' W 096°08'0 0.2
2018-Jun-17 05:00N 19°12' W 096°08'1 1.6
2018-Jun-17 04:30N 19°13' W 096°08'1 1.8
2018-Jun-17 04:00N 19°12' W 096°08'0 0.0
2018-Jun-17 03:27N 19°12' W 096°08'0 0.0
2018-Jun-17 02:57N 19°12' W 096°08'0 0.0
2018-Jun-17 02:27N 19°12' W 096°08'0 0.0
2018-Jun-17 01:57N 19°12' W 096°08'0 0.0
2018-Jun-17 01:27N 19°12' W 096°08'0 0.0
2018-Jun-17 00:57N 19°12' W 096°08'0 0.0
2018-Jun-17 00:21N 19°12' W 096°08'0 0.0
2018-Jun-16 22:21N 19°12' W 096°08'0 0.0
2018-Jun-16 21:57N 19°12' W 096°08'0 0.0
2018-Jun-16 21:27N 19°12' W 096°08'0 0.0
2018-Jun-16 20:57N 19°12' W 096°08'0 0.0
2018-Jun-16 20:27N 19°12' W 096°08'0 0.0
2018-Jun-16 19:45N 19°12' W 096°08'0 0.0
2018-Jun-16 19:21N 19°12' W 096°08'0 0.0
2018-Jun-16 18:57N 19°12' W 096°08'0 0.0
2018-Jun-16 18:27N 19°12' W 096°08'0 0.0
2018-Jun-16 17:57N 19°12' W 096°08'0 0.0
2018-Jun-16 17:27N 19°12' W 096°08'0 0.0
2018-Jun-16 16:57N 19°12' W 096°08'0 0.0
2018-Jun-16 16:27N 19°12' W 096°08'0 0.0
2018-Jun-16 15:57N 19°12' W 096°08'0 0.0
2018-Jun-16 15:27N 19°12' W 096°08'0 0.0
2018-Jun-16 15:00N 19°12' W 096°08'2 3.8
2018-Jun-16 14:26N 19°12' W 096°05'2 4.3
2018-Jun-16 13:57N 19°12' W 096°08'0 0.3
2018-Jun-16 13:24N 19°12' W 096°08'0 0.3
2018-Jun-16 12:58N 19°12' W 096°08'0 0.0
2018-Jun-16 12:28N 19°12' W 096°08'0 0.0
2018-Jun-16 11:58N 19°12' W 096°08'0 0.0
2018-Jun-16 11:28N 19°12' W 096°08'0 0.0
2018-Jun-16 10:58N 19°12' W 096°08'0 0.0
2018-Jun-16 10:28N 19°12' W 096°08'0 0.0
2018-Jun-16 09:55N 19°12' W 096°08'0 0.0
2018-Jun-16 09:28N 19°12' W 096°08'0 0.0
2018-Jun-16 08:58N 19°12' W 096°08'2 4.1
2018-Jun-16 08:27N 19°12' W 096°06'1 1.8
2018-Jun-16 08:00N 19°12' W 096°06'1 1.9
2018-Jun-16 07:17N 19°12' W 096°08'0 0.0
2018-Jun-16 06:59N 19°12' W 096°08'0 0.0
2018-Jun-16 06:29N 19°12' W 096°08'0 0.0
2018-Jun-16 05:59N 19°12' W 096°08'0 0.0
2018-Jun-16 05:29N 19°12' W 096°08'0 0.0
2018-Jun-16 04:59N 19°12' W 096°08'0 0.0
2018-Jun-16 04:29N 19°12' W 096°08'0 0.0
2018-Jun-16 03:23N 19°12' W 096°08'0 0.0
2018-Jun-16 02:59N 19°12' W 096°08'0 0.0
2018-Jun-16 02:23N 19°12' W 096°08'0 0.0
2018-Jun-15 23:47N 19°12' W 096°08'0 0.0
2018-Jun-15 23:29N 19°12' W 096°08'  
2018-Jun-11 19:31N 19°12' W 096°08'0 0.0
2018-Jun-11 19:28N 19°12' W 096°08'0 0.1
2018-Jun-11 18:58N 19°12' W 096°08'0 0.0
2018-Jun-11 18:28N 19°12' W 096°08'0 0.0
2018-Jun-11 17:58N 19°12' W 096°08'0 0.0
2018-Jun-11 17:22N 19°12' W 096°08'0 0.0
2018-Jun-11 16:49N 19°12' W 096°08'0 0.0
2018-Jun-11 16:28N 19°12' W 096°08'2 4.6
2018-Jun-11 16:00N 19°12' W 096°05'2 2.6
2018-Jun-11 15:03N 19°13' W 096°08'1 5.0
2018-Jun-11 14:55N 19°12' W 096°08'0 0.1
2018-Jun-11 14:30N 19°12' W 096°08'  
Track history (hours):
 
Tides and Currents Weather Stations Pressure Air Temp Water Temp Dewpoint Dewpoint Depression Visibility Wind Speed Wind Dir Waves Ship Positions

Neptuno

Last reported at 2018-Jun-21 14:17 UTC. Time now 2018-Jun-21 16:24 UTC.
Position N 19°12' W 096°08'.

Length 11 m.

Type: Pilot. MMSI: 345390000.

Date/timePositionNaut miles runAvg speedWind from/ knotsBaromVisibWave heightAir tempDewpointWater temp
2018-Jun-21 14:17N 19°12' W 096°08'3 7.8
2018-Jun-21 13:57N 19°12' W 096°05'3 5.2
2018-Jun-21 13:27N 19°12' W 096°08'0 0.0
2018-Jun-21 11:31N 19°12' W 096°08'0 0.0
2018-Jun-21 11:01N 19°12' W 096°08'0 0.0
2018-Jun-21 10:49N 19°12' W 096°08'0 0.0
2018-Jun-21 10:19N 19°12' W 096°08'0 0.0
2018-Jun-21 09:58N 19°12' W 096°08'0 0.0
2018-Jun-21 08:01N 19°12' W 096°08'0 0.0
2018-Jun-21 07:43N 19°12' W 096°08'0 0.0
2018-Jun-21 07:25N 19°12' W 096°08'0 0.0
2018-Jun-21 06:58N 19°12' W 096°08'0 0.0
2018-Jun-21 05:46N 19°12' W 096°08'0 0.0
2018-Jun-21 05:28N 19°12' W 096°08'0 0.0
2018-Jun-21 04:37N 19°12' W 096°08'0 0.0
2018-Jun-21 04:13N 19°12' W 096°08'0 0.0
2018-Jun-21 02:58N 19°12' W 096°08'0 0.0
2018-Jun-21 02:28N 19°12' W 096°08'0 0.0
2018-Jun-21 01:49N 19°12' W 096°08'0 0.0
2018-Jun-21 01:13N 19°12' W 096°08'0 0.0
2018-Jun-21 00:13N 19°12' W 096°08'0 0.0
2018-Jun-20 23:58N 19°12' W 096°08'0 0.1
2018-Jun-20 19:46N 19°12' W 096°08'2 1.7
2018-Jun-20 18:51N 19°12' W 096°06'2 4.2
2018-Jun-20 18:27N 19°12' W 096°08'0 0.0
2018-Jun-20 16:30N 19°12' W 096°08'0 0.2
2018-Jun-20 15:47N 19°12' W 096°08'2 7.1
2018-Jun-20 15:29N 19°12' W 096°05'3 5.6
2018-Jun-20 14:59N 19°13' W 096°08'1 0.9
2018-Jun-20 13:57N 19°12' W 096°08'0 0.0
2018-Jun-20 13:24N 19°12' W 096°08'0 0.0
2018-Jun-20 12:51N 19°12' W 096°08'0 0.0
2018-Jun-20 12:27N 19°12' W 096°08'0 0.0
2018-Jun-20 11:18N 19°12' W 096°08'0 0.0
2018-Jun-20 11:00N 19°12' W 096°08'0 0.0
2018-Jun-20 10:27N 19°12' W 096°08'0 0.4
2018-Jun-20 09:34N 19°12' W 096°08'0 3.0
2018-Jun-20 09:27N 19°12' W 096°07'4 7.6
2018-Jun-20 08:59N 19°11' W 096°04'4 4.6
2018-Jun-20 08:10N 19°12' W 096°08'0 0.0
2018-Jun-20 07:55N 19°12' W 096°08'0 0.0
2018-Jun-20 07:07N 19°12' W 096°08'0 0.0
2018-Jun-20 06:43N 19°12' W 096°08'0 0.0
2018-Jun-20 05:49N 19°12' W 096°08'0 0.0
2018-Jun-20 05:25N 19°12' W 096°08'1 1.3
2018-Jun-20 04:43N 19°12' W 096°07'1 5.2
2018-Jun-20 04:26N 19°12' W 096°05'1 1.4
2018-Jun-20 04:00N 19°12' W 096°06'2 3.0
2018-Jun-20 03:26N 19°12' W 096°08'0 0.1
2018-Jun-20 02:48N 19°12' W 096°08'0 0.0
2018-Jun-19 20:17N 19°12' W 096°08'0 0.0
2018-Jun-19 19:59N 19°12' W 096°08'0 0.1
2018-Jun-19 18:09N 19°12' W 096°08'0 0.2
2018-Jun-19 16:49N 19°12' W 096°08'0 0.1
2018-Jun-19 16:27N 19°12' W 096°08'0 0.0
2018-Jun-19 15:57N 19°12' W 096°08'0 0.0
2018-Jun-19 15:27N 19°12' W 096°08'0 0.0
2018-Jun-19 14:57N 19°12' W 096°08'0 0.0
2018-Jun-19 14:21N 19°12' W 096°08'0 0.0
2018-Jun-19 13:54N 19°12' W 096°08'0 0.0
2018-Jun-19 13:30N 19°12' W 096°08'0 0.0
2018-Jun-19 13:00N 19°12' W 096°08'0 0.0
2018-Jun-19 12:30N 19°12' W 096°08'0 0.0
2018-Jun-19 12:00N 19°12' W 096°08'0 0.0
2018-Jun-19 11:30N 19°12' W 096°08'0 0.0
2018-Jun-19 11:00N 19°12' W 096°08'0 0.0
2018-Jun-19 10:30N 19°12' W 096°08'0 0.0
2018-Jun-19 09:57N 19°12' W 096°08'0 0.0
2018-Jun-19 09:30N 19°12' W 096°08'0 0.0
2018-Jun-19 09:00N 19°12' W 096°08'0 0.0
2018-Jun-19 08:27N 19°12' W 096°08'0 0.0
2018-Jun-19 07:57N 19°12' W 096°08'0 0.0
2018-Jun-19 07:30N 19°12' W 096°08'0 0.0
2018-Jun-19 07:00N 19°12' W 096°08'0 0.0
2018-Jun-19 06:30N 19°12' W 096°08'0 0.0
2018-Jun-19 06:00N 19°12' W 096°08'0 0.0
2018-Jun-19 05:30N 19°12' W 096°08'2 3.6
2018-Jun-19 04:50N 19°12' W 096°05'0 0.6
2018-Jun-19 04:29N 19°12' W 096°05'2 4.9
2018-Jun-19 03:59N 19°13' W 096°08'1 1.0
2018-Jun-19 03:22N 19°12' W 096°08'0 0.0
2018-Jun-19 02:58N 19°12' W 096°08'0 0.0
2018-Jun-19 02:28N 19°12' W 096°08'0 0.0
2018-Jun-19 01:58N 19°12' W 096°08'0 0.0
2018-Jun-19 01:25N 19°12' W 096°08'0 0.0
2018-Jun-19 00:58N 19°12' W 096°08'0 0.0
2018-Jun-19 00:28N 19°12' W 096°08'0 0.0
2018-Jun-18 23:58N 19°12' W 096°08'0 0.0
2018-Jun-18 23:25N 19°12' W 096°08'0 0.0
2018-Jun-18 22:55N 19°12' W 096°08'0 0.0
2018-Jun-18 22:25N 19°12' W 096°08'0 0.0
2018-Jun-18 21:43N 19°12' W 096°08'0 0.0
2018-Jun-18 20:43N 19°12' W 096°08'0 0.0
2018-Jun-18 20:25N 19°12' W 096°08'0 0.1
2018-Jun-18 18:49N 19°12' W 096°08'0 0.4
2018-Jun-18 18:28N 19°12' W 096°08'0 0.0
2018-Jun-18 16:46N 19°12' W 096°08'0 0.0
2018-Jun-18 16:22N 19°12' W 096°08'0 0.0
2018-Jun-18 15:58N 19°12' W 096°08'0 0.0
2018-Jun-18 15:16N 19°12' W 096°08'0 0.0
2018-Jun-18 14:58N 19°12' W 096°08'0 0.0
2018-Jun-18 14:28N 19°12' W 096°08'0 0.0
2018-Jun-18 13:58N 19°12' W 096°08'0 0.0
2018-Jun-18 13:25N 19°12' W 096°08'0 0.0
2018-Jun-18 12:58N 19°12' W 096°08'0 0.0
2018-Jun-18 12:28N 19°12' W 096°08'0 0.0
2018-Jun-18 11:58N 19°12' W 096°08'0 0.0
2018-Jun-18 11:22N 19°12' W 096°08'0 0.0
2018-Jun-18 10:58N 19°12' W 096°08'0 0.0
2018-Jun-18 10:28N 19°12' W 096°08'0 0.0
2018-Jun-18 09:58N 19°12' W 096°08'1 1.4
2018-Jun-18 09:27N 19°13' W 096°08'2 5.3
2018-Jun-18 09:00N 19°12' W 096°06'1 1.8
2018-Jun-18 08:30N 19°12' W 096°05'3 5.7
2018-Jun-18 08:00N 19°12' W 096°08'0 0.0
2018-Jun-17 12:29N 19°12' W 096°08'0 0.6
2018-Jun-17 12:00N 19°12' W 096°08'0 0.6
2018-Jun-17 11:28N 19°12' W 096°08'0 0.0
2018-Jun-17 10:52N 19°12' W 096°08'0 0.0
2018-Jun-17 10:22N 19°12' W 096°08'0 0.0
2018-Jun-17 09:58N 19°12' W 096°08'0 0.0
2018-Jun-17 09:25N 19°12' W 096°08'0 0.0
2018-Jun-17 08:58N 19°12' W 096°08'0 0.0
2018-Jun-17 08:28N 19°12' W 096°08'0 0.0
2018-Jun-17 07:55N 19°12' W 096°08'0 0.0
2018-Jun-17 07:28N 19°12' W 096°08'0 0.0
2018-Jun-17 06:49N 19°12' W 096°08'0 0.0
2018-Jun-17 06:25N 19°12' W 096°08'0 0.0
2018-Jun-17 05:52N 19°12' W 096°08'0 0.0
2018-Jun-17 05:25N 19°12' W 096°08'0 0.2
2018-Jun-17 05:00N 19°12' W 096°08'1 1.6
2018-Jun-17 04:30N 19°13' W 096°08'1 1.8
2018-Jun-17 04:00N 19°12' W 096°08'0 0.0
2018-Jun-17 03:27N 19°12' W 096°08'0 0.0
2018-Jun-17 02:57N 19°12' W 096°08'0 0.0
2018-Jun-17 02:27N 19°12' W 096°08'0 0.0
2018-Jun-17 01:57N 19°12' W 096°08'0 0.0
2018-Jun-17 01:27N 19°12' W 096°08'0 0.0
2018-Jun-17 00:57N 19°12' W 096°08'0 0.0
2018-Jun-17 00:21N 19°12' W 096°08'0 0.0
2018-Jun-16 22:21N 19°12' W 096°08'0 0.0
2018-Jun-16 21:57N 19°12' W 096°08'0 0.0
2018-Jun-16 21:27N 19°12' W 096°08'0 0.0
2018-Jun-16 20:57N 19°12' W 096°08'0 0.0
2018-Jun-16 20:27N 19°12' W 096°08'0 0.0
2018-Jun-16 19:45N 19°12' W 096°08'0 0.0
2018-Jun-16 19:21N 19°12' W 096°08'0 0.0
2018-Jun-16 18:57N 19°12' W 096°08'0 0.0
2018-Jun-16 18:27N 19°12' W 096°08'0 0.0
2018-Jun-16 17:57N 19°12' W 096°08'0 0.0
2018-Jun-16 17:27N 19°12' W 096°08'0 0.0
2018-Jun-16 16:57N 19°12' W 096°08'0 0.0
2018-Jun-16 16:27N 19°12' W 096°08'0 0.0
2018-Jun-16 15:57N 19°12' W 096°08'0 0.0
2018-Jun-16 15:27N 19°12' W 096°08'0 0.0
2018-Jun-16 15:00N 19°12' W 096°08'2 3.8
2018-Jun-16 14:26N 19°12' W 096°05'2 4.3
2018-Jun-16 13:57N 19°12' W 096°08'0 0.3
2018-Jun-16 13:24N 19°12' W 096°08'0 0.3
2018-Jun-16 12:58N 19°12' W 096°08'0 0.0
2018-Jun-16 12:28N 19°12' W 096°08'0 0.0
2018-Jun-16 11:58N 19°12' W 096°08'0 0.0
2018-Jun-16 11:28N 19°12' W 096°08'0 0.0
2018-Jun-16 10:58N 19°12' W 096°08'0 0.0
2018-Jun-16 10:28N 19°12' W 096°08'0 0.0
2018-Jun-16 09:55N 19°12' W 096°08'0 0.0
2018-Jun-16 09:28N 19°12' W 096°08'0 0.0
2018-Jun-16 08:58N 19°12' W 096°08'2 4.1
2018-Jun-16 08:27N 19°12' W 096°06'1 1.8
2018-Jun-16 08:00N 19°12' W 096°06'1 1.9
2018-Jun-16 07:17N 19°12' W 096°08'0 0.0
2018-Jun-16 06:59N 19°12' W 096°08'0 0.0
2018-Jun-16 06:29N 19°12' W 096°08'0 0.0
2018-Jun-16 05:59N 19°12' W 096°08'0 0.0
2018-Jun-16 05:29N 19°12' W 096°08'0 0.0
2018-Jun-16 04:59N 19°12' W 096°08'0 0.0
2018-Jun-16 04:29N 19°12' W 096°08'0 0.0
2018-Jun-16 03:23N 19°12' W 096°08'0 0.0
2018-Jun-16 02:59N 19°12' W 096°08'0 0.0
2018-Jun-16 02:23N 19°12' W 096°08'0 0.0
2018-Jun-15 23:47N 19°12' W 096°08'0 0.0
2018-Jun-15 23:29N 19°12' W 096°08'  
2018-Jun-11 19:31N 19°12' W 096°08'0 0.0
2018-Jun-11 19:28N 19°12' W 096°08'0 0.1
2018-Jun-11 18:58N 19°12' W 096°08'0 0.0
2018-Jun-11 18:28N 19°12' W 096°08'0 0.0
2018-Jun-11 17:58N 19°12' W 096°08'0 0.0
2018-Jun-11 17:22N 19°12' W 096°08'0 0.0
2018-Jun-11 16:49N 19°12' W 096°08'0 0.0
2018-Jun-11 16:28N 19°12' W 096°08'2 4.6
2018-Jun-11 16:00N 19°12' W 096°05'2 2.6
2018-Jun-11 15:03N 19°13' W 096°08'1 5.0
2018-Jun-11 14:55N 19°12' W 096°08'0 0.1
2018-Jun-11 14:30N 19°12' W 096°08'  

Dump ship's entire track history